Time;durP1;ratioP1;P1;durP2;ratioP2;P2;SDS_P1;SDS_P2;PMS_P1;PMS_P2;Temp;Humidity;BMP_temperature;BMP_pressure;BME280_temperature;BME280_humidity;BME280_pressure;Samples;Min_cycle;Max_cycle;Signal;HPM_P1;HPM_P2
2023/06/22 00:01:49;;;;;;;7.43;4.88;;;16.20;90.50;;;;;;5011495;28;20034;-69
2023/06/22 00:04:15;;;;;;;8.43;5.45;;;16.20;90.40;;;;;;5007732;28;20025;-67
2023/06/22 00:06:40;;;;;;;7.78;5.45;;;16.20;90.80;;;;;;5003640;28;20025;-70
2023/06/22 00:09:06;;;;;;;8.93;5.72;;;16.20;90.70;;;;;;5011625;28;20263;-66
2023/06/22 00:11:33;;;;;;;9.13;5.60;;;16.20;90.90;;;;;;5008775;28;20037;-69
2023/06/22 00:13:59;;;;;;;10.82;5.10;;;16.20;90.30;;;;;;5012048;28;20176;-70
2023/06/22 00:16:25;;;;;;;10.13;4.80;;;16.20;90.30;;;;;;5002389;28;20014;-69
2023/06/22 00:18:50;;;;;;;8.07;4.68;;;16.20;90.50;;;;;;5003654;28;20063;-69
2023/06/22 00:21:16;;;;;;;6.70;4.95;;;16.20;90.10;;;;;;5002884;28;20113;-74
2023/06/22 00:23:43;;;;;;;11.23;4.80;;;16.10;90.20;;;;;;5000150;28;20038;-69
2023/06/22 00:26:08;;;;;;;9.10;6.05;;;16.20;90.10;;;;;;5008200;28;20339;-69
2023/06/22 00:28:34;;;;;;;9.07;6.13;;;16.20;90.30;;;;;;5006283;28;20061;-70
2023/06/22 00:31:00;;;;;;;9.10;5.93;;;16.20;90.40;;;;;;5012480;28;20040;-69
2023/06/22 00:33:26;;;;;;;8.52;5.80;;;16.20;89.90;;;;;;5014285;28;20114;-71
2023/06/22 00:35:53;;;;;;;8.93;5.82;;;16.20;90.90;;;;;;5014094;28;20476;-70
2023/06/22 00:38:19;;;;;;;11.27;6.25;;;16.30;91.50;;;;;;5006673;28;22350;-70
2023/06/22 00:40:44;;;;;;;8.30;6.00;;;16.30;91.50;;;;;;5003209;28;20041;-67
2023/06/22 00:43:10;;;;;;;11.38;7.18;;;16.20;91.60;;;;;;4999765;28;20312;-68
2023/06/22 00:45:35;;;;;;;9.43;6.65;;;16.20;91.70;;;;;;5005009;28;20033;-68
2023/06/22 00:48:02;;;;;;;10.02;7.07;;;16.30;91.80;;;;;;5005100;28;20484;-66
2023/06/22 00:50:33;;;;;;;9.07;6.40;;;16.20;91.90;;;;;;5003916;28;20055;-67
2023/06/22 00:53:01;;;;;;;10.93;7.05;;;16.30;91.90;;;;;;5024308;28;20047;-68
2023/06/22 00:55:27;;;;;;;10.25;6.78;;;16.30;92.00;;;;;;5012555;28;20119;-69
2023/06/22 00:57:56;;;;;;;10.77;6.88;;;16.20;92.10;;;;;;5002817;28;20121;-70
2023/06/22 01:00:24;;;;;;;10.80;7.53;;;16.20;91.90;;;;;;5010121;28;20056;-70
2023/06/22 01:02:52;;;;;;;9.68;7.15;;;16.20;91.60;;;;;;5005296;28;20123;-67
2023/06/22 01:05:20;;;;;;;11.73;7.65;;;16.10;91.80;;;;;;5004484;28;20036;-68
2023/06/22 01:08:06;;;;;;;11.27;7.60;;;16.10;92.00;;;;;;5011404;28;20334;-67
2023/06/22 01:10:43;;;;;;;9.75;7.05;;;16.10;92.20;;;;;;4993477;28;20025;-67
2023/06/22 01:13:20;;;;;;;9.57;6.57;;;16.10;92.40;;;;;;5007883;28;20044;-67
2023/06/22 01:15:53;;;;;;;9.90;7.00;;;16.10;92.00;;;;;;5009876;28;20120;-67
2023/06/22 01:18:21;;;;;;;11.43;6.75;;;16.10;92.30;;;;;;4999211;28;20045;-67
2023/06/22 01:20:47;;;;;;;8.63;6.78;;;16.10;92.40;;;;;;5003106;28;20041;-68
2023/06/22 01:23:39;;;;;;;9.18;6.75;;;16.10;92.50;;;;;;5006748;28;20037;-67
2023/06/22 01:26:35;;;;;;;10.05;7.47;;;16.10;92.50;;;;;;5001060;28;20028;-68
2023/06/22 01:29:04;;;;;;;11.80;8.18;;;16.10;92.50;;;;;;5005376;28;20033;-67
2023/06/22 01:31:32;;;;;;;9.25;7.40;;;16.10;92.30;;;;;;5004999;28;20369;-67
2023/06/22 01:34:00;;;;;;;11.75;8.00;;;16.00;92.40;;;;;;5002144;28;20636;-68
2023/06/22 01:36:26;;;;;;;10.75;7.68;;;16.00;92.50;;;;;;5002962;28;20070;-67
2023/06/22 01:38:53;;;;;;;12.90;8.45;;;16.00;92.50;;;;;;5003769;28;20041;-69
2023/06/22 01:41:20;;;;;;;12.82;7.97;;;16.00;92.30;;;;;;5006423;28;20042;-67
2023/06/22 01:43:46;;;;;;;11.07;8.02;;;16.00;92.50;;;;;;4998308;28;20078;-67
2023/06/22 01:46:12;;;;;;;9.93;8.43;;;16.00;92.70;;;;;;5005896;28;20033;-67
2023/06/22 01:48:39;;;;;;;10.95;7.50;;;16.00;92.70;;;;;;5001834;28;20062;-66
2023/06/22 01:51:04;;;;;;;12.10;8.60;;;16.00;92.80;;;;;;5003745;28;20022;-68
2023/06/22 01:53:30;;;;;;;12.27;8.27;;;16.00;92.90;;;;;;5007070;28;20034;-67
2023/06/22 01:55:57;;;;;;;8.57;7.20;;;16.00;92.70;;;;;;5003347;28;20022;-70
2023/06/22 01:58:26;;;;;;;12.27;7.95;;;16.00;93.10;;;;;;5006370;28;22193;-67
2023/06/22 02:01:03;;;;;;;9.80;7.22;;;16.00;92.80;;;;;;5007569;28;20025;-67
2023/06/22 02:03:36;;;;;;;13.30;8.43;;;16.00;92.80;;;;;;5004228;28;20033;-67
2023/06/22 02:06:06;;;;;;;11.02;7.82;;;16.00;93.10;;;;;;5000724;28;20026;-68
2023/06/22 02:08:41;;;;;;;11.85;8.75;;;16.00;93.20;;;;;;5006106;28;20041;-67
2023/06/22 02:11:09;;;;;;;14.50;8.20;;;15.80;92.80;;;;;;5004219;28;20045;-67
2023/06/22 02:13:36;;;;;;;11.60;7.70;;;15.80;92.60;;;;;;5006688;28;20423;-67
2023/06/22 02:16:03;;;;;;;11.38;7.70;;;15.80;92.70;;;;;;5016522;28;20037;-67
2023/06/22 02:18:28;;;;;;;11.02;7.63;;;15.70;92.80;;;;;;5001962;28;20022;-68
2023/06/22 02:20:54;;;;;;;11.82;8.85;;;15.70;93.00;;;;;;5010568;28;20044;-69
2023/06/22 02:23:19;;;;;;;10.95;7.93;;;15.60;93.20;;;;;;5005178;28;20135;-68
2023/06/22 02:25:45;;;;;;;11.98;8.43;;;15.60;92.80;;;;;;5005899;28;20080;-67
2023/06/22 02:28:10;;;;;;;11.93;8.68;;;15.50;92.70;;;;;;5007565;28;20036;-69
2023/06/22 02:30:36;;;;;;;11.65;8.57;;;15.50;92.60;;;;;;5004554;28;20041;-70
2023/06/22 02:33:01;;;;;;;10.18;7.57;;;15.50;92.70;;;;;;5017935;28;20053;-72
2023/06/22 02:35:31;;;;;;;11.32;8.57;;;15.40;93.00;;;;;;5011398;28;20044;-68
2023/06/22 02:37:57;;;;;;;11.57;8.30;;;15.40;93.20;;;;;;5000160;28;20026;-68
2023/06/22 02:40:23;;;;;;;10.63;8.40;;;15.40;93.40;;;;;;5004346;28;20137;-67
2023/06/22 02:42:48;;;;;;;14.73;8.40;;;15.30;93.10;;;;;;5004419;28;20143;-67
2023/06/22 02:45:14;;;;;;;11.30;8.00;;;15.30;93.10;;;;;;5012616;28;20428;-68
2023/06/22 02:47:39;;;;;;;11.30;7.95;;;15.30;93.00;;;;;;5011994;28;20054;-67
2023/06/22 02:50:05;;;;;;;11.27;7.50;;;15.30;93.20;;;;;;5005254;28;20476;-69
2023/06/22 02:52:31;;;;;;;12.00;8.30;;;15.30;93.20;;;;;;5010877;28;20064;-69
2023/06/22 02:54:56;;;;;;;9.65;7.53;;;15.30;93.30;;;;;;5009680;28;20422;-67
2023/06/22 02:57:22;;;;;;;10.95;7.47;;;15.30;93.30;;;;;;5011959;28;20715;-67
2023/06/22 02:59:47;;;;;;;10.20;7.47;;;15.20;93.20;;;;;;5012942;28;20034;-68
2023/06/22 03:02:13;;;;;;;9.70;6.82;;;15.20;93.00;;;;;;5018141;28;20179;-67
2023/06/22 03:04:38;;;;;;;10.30;7.60;;;15.20;93.20;;;;;;5008776;28;20140;-67
2023/06/22 03:07:04;;;;;;;12.23;6.90;;;15.20;93.60;;;;;;5016471;28;20089;-67
2023/06/22 03:09:29;;;;;;;11.85;7.40;;;15.20;93.60;;;;;;5011539;28;20329;-67
2023/06/22 03:11:55;;;;;;;11.20;7.15;;;15.20;93.30;;;;;;5014597;28;20048;-67
2023/06/22 03:14:21;;;;;;;9.98;7.40;;;15.10;93.10;;;;;;5020109;28;20365;-68
2023/06/22 03:16:46;;;;;;;11.82;7.50;;;15.20;93.20;;;;;;5003279;28;20038;-70
2023/06/22 03:19:12;;;;;;;15.10;8.25;;;15.20;93.10;;;;;;5001225;28;20539;-69
2023/06/22 03:21:38;;;;;;;10.40;7.63;;;15.30;93.20;;;;;;5019154;28;20057;-67
2023/06/22 03:24:05;;;;;;;10.93;8.70;;;15.30;93.20;;;;;;5005762;28;20046;-70
2023/06/22 03:26:30;;;;;;;10.25;7.63;;;15.30;92.90;;;;;;5008751;28;20147;-68
2023/06/22 03:28:56;;;;;;;11.65;7.60;;;15.40;92.90;;;;;;5006660;28;20038;-67
2023/06/22 03:31:22;;;;;;;10.20;7.28;;;15.40;93.10;;;;;;5006427;28;20096;-69
2023/06/22 03:33:49;;;;;;;10.10;7.32;;;15.40;93.00;;;;;;5005380;28;20477;-67
2023/06/22 03:36:22;;;;;;;11.90;7.53;;;15.50;92.80;;;;;;5014258;28;20029;-68
2023/06/22 03:38:49;;;;;;;10.55;7.18;;;15.50;92.60;;;;;;5001613;28;20099;-67
2023/06/22 03:41:14;;;;;;;10.13;7.28;;;15.60;92.60;;;;;;5010164;28;20054;-68
2023/06/22 03:43:40;;;;;;;12.05;7.60;;;15.70;92.50;;;;;;5013900;28;20308;-69
2023/06/22 03:46:06;;;;;;;9.02;7.00;;;15.80;92.70;;;;;;5011747;28;20391;-69
2023/06/22 03:48:31;;;;;;;12.30;7.63;;;15.80;93.00;;;;;;5008668;28;20524;-67
2023/06/22 03:50:58;;;;;;;9.75;6.43;;;15.90;92.60;;;;;;5003798;28;20102;-67
2023/06/22 03:53:24;;;;;;;8.65;6.75;;;16.00;92.70;;;;;;5004650;28;20064;-69
2023/06/22 03:55:51;;;;;;;12.93;7.45;;;16.10;92.70;;;;;;5005021;28;20419;-69
2023/06/22 03:58:18;;;;;;;11.05;7.45;;;16.20;92.50;;;;;;5006694;28;20115;-67
2023/06/22 04:00:48;;;;;;;10.77;7.38;;;16.30;92.10;;;;;;5000338;28;20044;-69
2023/06/22 04:03:14;;;;;;;10.95;7.25;;;16.40;91.80;;;;;;4998788;28;20147;-67
2023/06/22 04:05:40;;;;;;;11.95;7.70;;;16.50;91.20;;;;;;5005469;28;20113;-67
2023/06/22 04:08:06;;;;;;;12.00;8.05;;;16.60;91.30;;;;;;5005935;28;20410;-67
2023/06/22 04:10:31;;;;;;;10.93;7.40;;;16.60;91.00;;;;;;5009185;28;20105;-69
2023/06/22 04:12:57;;;;;;;11.15;6.88;;;16.80;91.10;;;;;;5005925;28;20030;-68
2023/06/22 04:15:22;;;;;;;13.60;7.47;;;16.80;91.30;;;;;;5007477;28;20037;-67
2023/06/22 04:17:48;;;;;;;12.07;6.75;;;16.90;91.50;;;;;;5003024;28;20049;-67
2023/06/22 04:20:13;;;;;;;11.00;7.55;;;17.00;91.50;;;;;;5023163;28;20259;-67
2023/06/22 04:22:38;;;;;;;10.57;7.85;;;17.00;90.60;;;;;;5012333;28;20034;-68
2023/06/22 04:25:07;;;;;;;10.98;7.38;;;17.10;90.70;;;;;;5004620;28;20038;-67
2023/06/22 04:27:36;;;;;;;10.75;7.43;;;17.10;90.60;;;;;;5004317;28;20092;-64
2023/06/22 04:30:03;;;;;;;13.65;7.65;;;17.10;90.80;;;;;;5011588;28;20022;-64
2023/06/22 04:32:28;;;;;;;11.05;7.25;;;17.20;90.40;;;;;;5000124;28;20030;-64
2023/06/22 04:34:54;;;;;;;10.38;6.95;;;17.30;90.10;;;;;;5004001;28;20033;-64
2023/06/22 04:37:23;;;;;;;12.52;7.47;;;17.30;90.00;;;;;;5003803;28;20045;-64
2023/06/22 04:39:49;;;;;;;11.85;7.20;;;17.40;89.50;;;;;;5007414;28;20029;-63
2023/06/22 04:42:14;;;;;;;14.23;7.00;;;17.50;89.40;;;;;;5006126;28;20044;-65
2023/06/22 04:44:41;;;;;;;9.07;6.50;;;17.60;89.70;;;;;;5001155;28;20030;-64
2023/06/22 04:47:08;;;;;;;12.15;7.10;;;17.70;89.40;;;;;;5008325;28;20096;-65
2023/06/22 04:49:35;;;;;;;10.98;6.65;;;17.70;89.40;;;;;;5007711;28;20033;-65
2023/06/22 04:52:03;;;;;;;10.00;7.45;;;17.80;89.50;;;;;;4995931;28;20034;-66
2023/06/22 04:54:29;;;;;;;8.95;6.82;;;17.90;89.20;;;;;;5002356;28;20033;-66
2023/06/22 04:56:57;;;;;;;11.00;6.93;;;18.00;88.60;;;;;;5001270;28;20037;-69
2023/06/22 04:59:30;;;;;;;12.20;6.28;;;18.00;88.70;;;;;;5003354;28;20743;-65
2023/06/22 05:02:00;;;;;;;10.45;7.07;;;18.10;88.40;;;;;;5010775;28;20034;-66
2023/06/22 05:04:27;;;;;;;10.60;6.55;;;18.20;88.40;;;;;;4996375;28;20114;-65
2023/06/22 05:06:54;;;;;;;9.57;6.55;;;18.20;88.30;;;;;;4997220;28;20471;-63
2023/06/22 05:09:20;;;;;;;9.80;7.30;;;18.30;88.00;;;;;;4995605;28;20453;-65
2023/06/22 05:11:46;;;;;;;9.48;6.40;;;18.30;87.60;;;;;;5001016;28;20030;-64
2023/06/22 05:14:11;;;;;;;11.98;5.90;;;18.30;87.90;;;;;;5005728;28;20421;-64
2023/06/22 05:16:38;;;;;;;9.45;5.82;;;18.40;87.80;;;;;;5001101;28;20398;-64
2023/06/22 05:19:03;;;;;;;9.52;6.22;;;18.40;87.80;;;;;;4998963;28;20033;-64
2023/06/22 05:21:30;;;;;;;11.40;6.60;;;18.50;87.30;;;;;;5004115;28;20037;-64
2023/06/22 05:23:59;;;;;;;10.23;6.00;;;18.50;86.70;;;;;;4999869;28;20435;-64
2023/06/22 05:26:26;;;;;;;12.20;5.78;;;18.60;86.70;;;;;;5007282;28;20422;-64
2023/06/22 05:28:52;;;;;;;8.13;5.93;;;18.80;87.20;;;;;;5013113;28;20100;-65
2023/06/22 05:31:21;;;;;;;9.45;6.10;;;18.90;85.70;;;;;;5010071;28;20034;-65
2023/06/22 05:33:49;;;;;;;17.92;5.70;;;19.00;86.20;;;;;;5012300;28;20025;-65
2023/06/22 05:36:14;;;;;;;8.63;4.95;;;19.20;85.10;;;;;;5005512;28;20113;-64
2023/06/22 05:38:40;;;;;;;10.00;5.00;;;19.30;84.40;;;;;;5005330;28;20104;-68
2023/06/22 05:41:06;;;;;;;7.38;4.88;;;19.50;84.50;;;;;;5001395;28;20094;-68
2023/06/22 05:43:32;;;;;;;10.68;6.07;;;19.50;84.30;;;;;;5005990;28;20037;-68
2023/06/22 05:46:01;;;;;;;8.07;5.20;;;19.50;83.60;;;;;;5010819;28;20025;-68
2023/06/22 05:48:26;;;;;;;8.60;5.20;;;19.60;83.70;;;;;;4994001;28;20064;-69
2023/06/22 05:50:53;;;;;;;12.48;5.43;;;19.70;83.30;;;;;;5009182;28;20029;-68
2023/06/22 05:53:19;;;;;;;9.15;4.82;;;19.90;83.40;;;;;;5004568;28;20073;-68
2023/06/22 05:55:44;;;;;;;9.07;4.57;;;20.00;83.10;;;;;;4999946;28;20443;-68
2023/06/22 05:58:10;;;;;;;12.63;4.75;;;20.00;82.90;;;;;;5011075;28;20033;-69
2023/06/22 06:00:36;;;;;;;7.68;4.43;;;20.10;81.90;;;;;;5003713;28;20041;-69
2023/06/22 06:03:04;;;;;;;8.73;4.88;;;20.10;81.90;;;;;;5008089;28;20083;-70
2023/06/22 06:05:31;;;;;;;7.00;4.50;;;20.20;81.10;;;;;;5006352;28;20104;-68
2023/06/22 06:07:56;;;;;;;11.95;4.70;;;20.30;82.40;;;;;;5002662;28;20252;-69
2023/06/22 06:10:22;;;;;;;8.10;3.97;;;20.50;81.70;;;;;;4995080;28;20516;-69
2023/06/22 06:12:48;;;;;;;10.00;4.13;;;20.50;80.70;;;;;;4997555;28;20482;-67
2023/06/22 06:15:13;;;;;;;7.57;4.07;;;20.50;80.80;;;;;;5007257;28;20213;-68
2023/06/22 06:17:49;;;;;;;7.32;4.25;;;20.50;80.30;;;;;;5007764;28;20034;-68
2023/06/22 06:20:15;;;;;;;7.75;3.60;;;20.60;79.50;;;;;;5001473;28;20112;-69
2023/06/22 06:22:42;;;;;;;6.88;3.83;;;20.80;80.40;;;;;;5004344;28;20124;-69
2023/06/22 06:25:08;;;;;;;9.48;3.85;;;20.90;79.80;;;;;;5009961;28;20415;-69
2023/06/22 06:27:34;;;;;;;8.48;4.05;;;21.00;80.30;;;;;;5005579;28;20224;-69
2023/06/22 06:29:59;;;;;;;6.13;3.42;;;21.10;79.70;;;;;;5005549;28;20358;-70
2023/06/22 06:32:24;;;;;;;5.95;3.53;;;21.30;78.80;;;;;;5004216;28;20148;-70
2023/06/22 06:34:50;;;;;;;7.63;3.45;;;21.40;79.40;;;;;;5007867;28;20339;-69
2023/06/22 06:37:16;;;;;;;8.38;3.20;;;21.60;79.70;;;;;;5004589;28;20033;-70
2023/06/22 06:39:42;;;;;;;8.02;3.17;;;22.00;77.10;;;;;;5000893;28;20034;-69
2023/06/22 06:42:08;;;;;;;3.92;2.80;;;22.10;77.50;;;;;;5001092;28;20045;-69
2023/06/22 06:44:33;;;;;;;4.22;2.65;;;22.50;75.00;;;;;;5006665;28;20470;-70
2023/06/22 06:46:59;;;;;;;5.18;2.78;;;22.70;75.80;;;;;;5001518;28;20058;-69
2023/06/22 06:49:25;;;;;;;5.75;2.75;;;23.00;72.80;;;;;;5011705;28;20129;-68
2023/06/22 06:51:50;;;;;;;5.63;3.13;;;23.20;73.00;;;;;;5000929;28;20546;-69
2023/06/22 06:54:15;;;;;;;7.60;2.97;;;23.30;69.50;;;;;;5003886;28;20064;-69
2023/06/22 06:56:44;;;;;;;4.38;2.60;;;23.50;71.10;;;;;;5001618;28;20107;-69
2023/06/22 06:59:10;;;;;;;3.53;2.17;;;23.50;68.90;;;;;;5007082;28;20488;-69
2023/06/22 07:01:35;;;;;;;4.72;2.60;;;23.30;67.50;;;;;;5007373;28;20077;-69
2023/06/22 07:04:01;;;;;;;4.95;2.00;;;23.30;67.10;;;;;;5006249;28;20508;-68
2023/06/22 07:06:28;;;;;;;3.05;2.05;;;23.10;66.20;;;;;;5006114;28;20111;-69
2023/06/22 07:08:55;;;;;;;4.43;2.20;;;23.00;68.20;;;;;;4999828;28;20033;-69
2023/06/22 07:11:20;;;;;;;4.72;2.38;;;23.00;67.80;;;;;;5002847;28;20030;-69
2023/06/22 07:13:46;;;;;;;4.05;2.25;;;23.00;68.10;;;;;;5005628;28;20026;-69
2023/06/22 07:16:11;;;;;;;3.97;2.10;;;23.20;66.60;;;;;;5003047;28;20030;-69
2023/06/22 07:18:39;;;;;;;4.00;2.17;;;23.10;66.70;;;;;;4999105;28;20350;-68
2023/06/22 07:21:06;;;;;;;4.90;2.05;;;23.40;68.50;;;;;;5009151;28;20038;-69
2023/06/22 07:23:32;;;;;;;3.25;2.10;;;23.50;70.10;;;;;;5012789;28;20350;-69
2023/06/22 07:25:57;;;;;;;10.80;2.30;;;23.60;69.00;;;;;;5001494;28;20038;-69
2023/06/22 07:28:23;;;;;;;3.15;1.88;;;24.00;66.50;;;;;;5013992;28;20053;-70
2023/06/22 07:30:48;;;;;;;4.50;2.40;;;23.90;66.80;;;;;;4996822;28;20129;-68
2023/06/22 07:33:14;;;;;;;5.00;2.60;;;23.70;66.20;;;;;;5003345;28;20439;-73
2023/06/22 07:35:39;;;;;;;3.83;2.17;;;23.60;65.40;;;;;;5004338;28;20114;-69
2023/06/22 07:38:05;;;;;;;6.97;2.55;;;23.50;65.80;;;;;;5005215;28;20107;-72
2023/06/22 07:40:30;;;;;;;6.00;2.20;;;23.50;63.80;;;;;;5006433;28;20426;-70
2023/06/22 07:42:56;;;;;;;5.13;2.63;;;23.80;65.20;;;;;;5009575;28;20485;-70
2023/06/22 07:45:21;;;;;;;4.05;2.22;;;24.20;65.20;;;;;;5012966;28;20026;-71
2023/06/22 07:47:47;;;;;;;7.20;2.47;;;24.80;62.90;;;;;;5016538;28;20057;-69
2023/06/22 07:50:12;;;;;;;5.93;2.50;;;24.90;64.50;;;;;;5019304;28;20049;-69
2023/06/22 07:52:38;;;;;;;4.40;2.50;;;25.00;61.90;;;;;;5006786;28;20033;-69
2023/06/22 07:55:04;;;;;;;6.03;2.58;;;24.90;61.60;;;;;;5016583;28;20021;-70
2023/06/22 07:57:33;;;;;;;4.50;2.33;;;25.20;62.20;;;;;;4999607;28;20041;-71
2023/06/22 08:00:00;;;;;;;4.63;2.25;;;25.50;63.60;;;;;;5009993;28;20056;-69
2023/06/22 08:02:26;;;;;;;5.13;2.35;;;25.40;61.60;;;;;;5006193;28;20145;-70
2023/06/22 08:04:51;;;;;;;4.25;2.28;;;25.40;61.50;;;;;;5016034;28;20184;-70
2023/06/22 08:07:19;;;;;;;5.85;2.35;;;25.70;61.00;;;;;;5004168;28;21122;-69
2023/06/22 08:09:48;;;;;;;7.40;2.10;;;25.50;60.80;;;;;;4996860;28;20339;-72
2023/06/22 08:12:14;;;;;;;3.05;1.90;;;26.00;60.50;;;;;;5008773;28;20029;-69
2023/06/22 08:14:43;;;;;;;3.40;1.98;;;26.40;60.60;;;;;;5008300;28;20037;-69
2023/06/22 08:17:08;;;;;;;4.35;2.03;;;26.20;58.20;;;;;;5000562;28;20026;-69
2023/06/22 08:19:34;;;;;;;4.68;2.63;;;26.30;57.70;;;;;;5008539;28;20034;-71
2023/06/22 08:21:59;;;;;;;3.97;2.40;;;26.30;58.20;;;;;;5011183;28;20034;-70
2023/06/22 08:24:25;;;;;;;3.92;2.50;;;26.00;57.60;;;;;;5016350;28;20193;-69
2023/06/22 08:26:52;;;;;;;4.75;1.90;;;25.70;55.00;;;;;;5009751;28;20109;-71
2023/06/22 08:29:17;;;;;;;5.50;2.53;;;25.70;60.20;;;;;;5014357;28;20076;-69
2023/06/22 08:31:43;;;;;;;6.57;2.33;;;25.90;60.40;;;;;;5014197;28;20022;-71
2023/06/22 08:34:08;;;;;;;13.27;2.63;;;26.20;57.90;;;;;;5010491;28;20049;-71
2023/06/22 08:36:37;;;;;;;4.95;2.33;;;26.50;60.40;;;;;;5004844;28;20465;-69
2023/06/22 08:39:03;;;;;;;3.85;2.10;;;26.70;55.60;;;;;;5008718;28;20096;-69
2023/06/22 08:41:29;;;;;;;4.15;2.20;;;26.60;57.70;;;;;;5000964;28;20560;-70
2023/06/22 08:43:55;;;;;;;6.05;2.38;;;26.90;57.00;;;;;;5001973;28;20018;-72
2023/06/22 08:46:23;;;;;;;3.85;1.95;;;27.00;54.70;;;;;;5003517;28;20038;-69
2023/06/22 08:48:49;;;;;;;5.05;2.10;;;27.30;58.60;;;;;;5007890;28;20021;-70
2023/06/22 08:51:14;;;;;;;4.18;2.15;;;27.00;56.20;;;;;;5010267;28;20042;-69
2023/06/22 08:53:40;;;;;;;5.20;2.20;;;27.70;56.70;;;;;;5010727;28;20025;-69
2023/06/22 08:56:05;;;;;;;3.97;2.20;;;28.00;54.60;;;;;;5006824;28;20118;-70
2023/06/22 08:58:30;;;;;;;3.80;2.13;;;28.00;55.90;;;;;;5005229;28;20025;-70
2023/06/22 09:00:56;;;;;;;4.10;2.25;;;27.50;52.10;;;;;;5005288;28;20300;-69
2023/06/22 09:03:26;;;;;;;4.28;2.30;;;28.00;54.40;;;;;;5008541;28;20025;-69
2023/06/22 09:05:51;;;;;;;5.00;2.10;;;27.90;52.60;;;;;;5002442;28;22229;-72
2023/06/22 09:08:17;;;;;;;4.50;2.67;;;27.60;54.30;;;;;;5001170;28;20038;-68
2023/06/22 09:10:42;;;;;;;3.90;2.35;;;27.50;51.40;;;;;;5009415;28;20157;-68
2023/06/22 09:13:08;;;;;;;7.70;2.72;;;27.50;53.40;;;;;;5013541;28;20418;-67
2023/06/22 09:15:34;;;;;;;6.60;2.40;;;27.50;53.30;;;;;;5008867;28;20089;-68
2023/06/22 09:18:00;;;;;;;6.53;2.10;;;27.80;54.20;;;;;;5012554;28;20017;-68
2023/06/22 09:20:25;;;;;;;4.55;2.72;;;28.00;54.40;;;;;;5011738;28;20059;-67
2023/06/22 09:22:51;;;;;;;5.85;2.50;;;28.00;52.60;;;;;;5012167;28;20049;-68
2023/06/22 09:25:16;;;;;;;5.10;2.13;;;27.80;52.70;;;;;;5005114;28;20133;-68
2023/06/22 09:27:42;;;;;;;5.38;2.53;;;28.10;56.20;;;;;;5018891;28;20125;-67
2023/06/22 09:30:08;;;;;;;5.85;2.40;;;28.00;52.10;;;;;;4999889;28;20061;-69
2023/06/22 09:32:33;;;;;;;3.78;2.53;;;28.50;53.00;;;;;;5006207;28;20242;-68
2023/06/22 09:35:02;;;;;;;6.55;2.60;;;28.50;53.80;;;;;;5004140;28;20026;-68
2023/06/22 09:37:27;;;;;;;7.20;2.60;;;28.90;53.50;;;;;;4999594;28;20040;-68
2023/06/22 09:39:53;;;;;;;6.90;2.90;;;28.90;52.80;;;;;;5003133;28;20030;-68
2023/06/22 09:42:18;;;;;;;4.47;2.40;;;28.30;51.70;;;;;;5023134;28;20056;-68
2023/06/22 09:44:43;;;;;;;4.32;2.67;;;28.50;51.40;;;;;;5009110;28;20113;-68
2023/06/22 09:47:09;;;;;;;5.07;3.17;;;28.50;52.30;;;;;;5012708;28;20494;-68
2023/06/22 09:49:34;;;;;;;4.35;2.30;;;28.00;51.80;;;;;;4998183;28;20029;-71
2023/06/22 09:52:00;;;;;;;6.43;2.92;;;28.40;52.70;;;;;;4998101;28;20785;-69
2023/06/22 09:54:25;;;;;;;5.63;2.90;;;28.50;52.10;;;;;;5008640;28;20481;-69
2023/06/22 09:56:51;;;;;;;6.40;3.33;;;28.00;52.60;;;;;;5009762;28;20089;-68
2023/06/22 09:59:17;;;;;;;3.28;2.17;;;27.20;54.50;;;;;;5013669;28;20040;-69
2023/06/22 10:01:42;;;;;;;5.90;2.78;;;27.80;55.30;;;;;;5012503;28;20424;-69
2023/06/22 10:04:07;;;;;;;4.97;3.10;;;28.10;54.10;;;;;;5004284;28;20099;-69
2023/06/22 10:06:33;;;;;;;6.18;2.92;;;28.10;50.30;;;;;;5000682;28;20034;-68
2023/06/22 10:08:58;;;;;;;7.35;3.08;;;28.50;52.90;;;;;;4999520;28;20026;-72
2023/06/22 10:11:29;;;;;;;5.53;2.70;;;29.20;51.50;;;;;;4992056;28;20062;-69
2023/06/22 10:13:54;;;;;;;3.25;2.40;;;29.10;51.70;;;;;;5001248;28;20064;-68
2023/06/22 10:16:20;;;;;;;5.03;2.92;;;29.00;51.00;;;;;;5009816;28;20435;-68
2023/06/22 10:18:45;;;;;;;4.65;2.83;;;28.90;51.10;;;;;;5007681;28;20076;-69
2023/06/22 10:21:11;;;;;;;5.57;3.20;;;29.40;52.80;;;;;;5005981;28;20073;-68
2023/06/22 10:23:36;;;;;;;5.00;2.53;;;28.90;49.80;;;;;;5002083;28;20103;-71
2023/06/22 10:26:02;;;;;;;6.25;3.08;;;29.40;51.50;;;;;;5011375;28;20029;-68
2023/06/22 10:28:27;;;;;;;7.60;3.13;;;29.30;48.80;;;;;;5008716;28;20491;-69
2023/06/22 10:30:53;;;;;;;4.45;3.00;;;29.20;52.30;;;;;;5002774;28;20137;-69
2023/06/22 10:33:18;;;;;;;3.70;2.70;;;29.40;51.10;;;;;;4999609;28;20037;-68
2023/06/22 10:35:44;;;;;;;5.35;3.03;;;29.90;49.90;;;;;;5006021;28;20192;-69
2023/06/22 10:38:09;;;;;;;6.63;3.25;;;30.40;49.70;;;;;;4998993;28;20082;-69
2023/06/22 10:40:35;;;;;;;6.35;2.75;;;29.50;48.70;;;;;;5006522;28;20085;-69
2023/06/22 10:43:00;;;;;;;6.55;2.85;;;30.40;51.40;;;;;;5005280;28;20422;-72
2023/06/22 10:45:27;;;;;;;8.52;2.70;;;30.70;48.50;;;;;;5008102;28;20523;-69
2023/06/22 10:47:52;;;;;;;4.72;2.88;;;31.00;48.10;;;;;;5011570;28;20445;-69
2023/06/22 10:50:18;;;;;;;6.10;2.90;;;30.90;49.90;;;;;;5001583;28;20041;-69
2023/06/22 10:52:43;;;;;;;6.97;2.90;;;30.40;49.90;;;;;;5011593;28;20033;-69
2023/06/22 10:55:10;;;;;;;6.40;2.58;;;30.70;49.60;;;;;;5013966;28;20037;-68
2023/06/22 10:57:36;;;;;;;6.30;2.88;;;30.50;50.40;;;;;;5006525;28;20022;-68
2023/06/22 11:00:05;;;;;;;3.38;2.20;;;30.50;47.80;;;;;;5004268;28;20030;-69
2023/06/22 11:02:30;;;;;;;5.07;2.65;;;31.00;51.00;;;;;;5015733;28;20083;-68
2023/06/22 11:04:56;;;;;;;4.85;2.92;;;31.00;47.60;;;;;;5000973;28;20564;-70
2023/06/22 11:07:21;;;;;;;4.25;2.65;;;31.50;50.70;;;;;;5000103;28;20045;-70
2023/06/22 11:09:47;;;;;;;6.85;2.83;;;31.30;47.10;;;;;;5017430;28;20438;-70
2023/06/22 11:12:12;;;;;;;4.82;2.80;;;30.80;47.00;;;;;;5014636;28;20092;-69
2023/06/22 11:14:39;;;;;;;5.32;2.97;;;31.20;47.30;;;;;;5007798;28;20113;-70
2023/06/22 11:17:04;;;;;;;5.22;2.67;;;31.30;47.80;;;;;;5002599;28;20082;-69
2023/06/22 11:19:30;;;;;;;10.13;3.03;;;31.40;48.80;;;;;;5009268;28;20077;-71
2023/06/22 11:21:56;;;;;;;6.22;2.95;;;31.30;47.20;;;;;;5003297;28;20461;-72
2023/06/22 11:24:21;;;;;;;5.95;3.03;;;31.30;46.10;;;;;;5009196;28;20049;-69
2023/06/22 11:26:47;;;;;;;4.05;2.75;;;32.20;46.20;;;;;;5017206;28;20100;-71
2023/06/22 11:29:12;;;;;;;7.95;2.67;;;32.90;46.70;;;;;;5009148;28;20529;-69
2023/06/22 11:31:38;;;;;;;5.68;2.40;;;33.40;42.30;;;;;;5010886;28;20053;-70
2023/06/22 11:34:04;;;;;;;3.45;2.30;;;34.40;44.20;;;;;;5013644;28;20135;-70
2023/06/22 11:36:32;;;;;;;5.18;2.55;;;34.90;43.30;;;;;;4998345;28;20021;-70
2023/06/22 11:38:58;;;;;;;5.88;2.67;;;34.50;43.10;;;;;;5002877;28;20121;-70
2023/06/22 11:41:23;;;;;;;5.63;2.70;;;33.50;43.90;;;;;;5018307;28;20032;-70
2023/06/22 11:43:49;;;;;;;3.42;2.65;;;33.10;44.30;;;;;;5007740;28;20054;-69
2023/06/22 11:46:14;;;;;;;4.10;2.75;;;32.70;45.50;;;;;;5007350;28;20346;-71
2023/06/22 11:48:40;;;;;;;6.80;2.60;;;32.30;44.60;;;;;;5008479;28;20044;-69
2023/06/22 11:51:06;;;;;;;6.88;3.17;;;32.00;47.00;;;;;;5018211;28;20045;-71
2023/06/22 11:53:31;;;;;;;8.40;2.83;;;31.50;48.50;;;;;;5006090;28;20373;-69
2023/06/22 11:55:57;;;;;;;5.10;3.33;;;31.50;48.60;;;;;;5003277;28;20033;-69
2023/06/22 11:58:23;;;;;;;4.35;3.00;;;30.90;45.80;;;;;;5002005;28;20053;-69
2023/06/22 12:00:49;;;;;;;5.20;2.67;;;31.00;48.10;;;;;;5017254;28;20120;-69
2023/06/22 12:03:17;;;;;;;5.10;3.20;;;30.40;49.70;;;;;;5015214;28;20045;-69
2023/06/22 12:05:42;;;;;;;3.83;2.80;;;30.30;50.10;;;;;;5001373;28;20049;-69
2023/06/22 12:08:08;;;;;;;4.35;3.13;;;30.20;51.70;;;;;;4999802;28;20473;-69
2023/06/22 12:10:34;;;;;;;6.28;3.10;;;30.00;49.20;;;;;;5007248;28;20038;-69
2023/06/22 12:13:00;;;;;;;5.10;3.20;;;30.30;49.10;;;;;;5004674;28;20331;-69
2023/06/22 12:15:26;;;;;;;6.03;3.63;;;30.70;50.40;;;;;;5005538;28;20042;-69
2023/06/22 12:17:52;;;;;;;4.28;3.00;;;31.00;48.60;;;;;;5010956;28;20128;-69
2023/06/22 12:20:17;;;;;;;5.25;3.63;;;31.30;51.50;;;;;;5009627;28;20037;-71
2023/06/22 12:22:43;;;;;;;4.35;3.55;;;30.50;46.10;;;;;;5008397;28;20045;-69
2023/06/22 12:25:09;;;;;;;6.28;3.42;;;30.80;50.00;;;;;;5019351;28;20117;-69
2023/06/22 12:27:35;;;;;;;6.88;3.40;;;30.50;47.50;;;;;;5005435;28;20116;-69
2023/06/22 12:30:01;;;;;;;5.05;3.38;;;30.10;48.70;;;;;;5005513;28;20029;-69
2023/06/22 12:32:26;;;;;;;5.20;3.47;;;29.70;48.30;;;;;;5002539;28;20052;-70
2023/06/22 12:34:52;;;;;;;5.43;3.55;;;29.60;52.60;;;;;;5003609;28;20091;-69
2023/06/22 12:37:18;;;;;;;5.00;3.60;;;29.20;49.70;;;;;;4986008;28;20046;-69
2023/06/22 12:39:44;;;;;;;5.57;3.15;;;29.10;52.20;;;;;;5001240;28;20093;-69